sensor_id;sensor_type;location;lat;lon;timestamp;P1;durP1;ratioP1;P2;durP2;ratioP2
8716;SDS011;4395;48.554;8.820;2023-07-22T00:01:11;4.63;;;3.57;;
8716;SDS011;4395;48.554;8.820;2023-07-22T00:03:14;3.40;;;3.10;;
8716;SDS011;4395;48.554;8.820;2023-07-22T00:05:17;3.07;;;2.60;;
8716;SDS011;4395;48.554;8.820;2023-07-22T00:07:24;3.90;;;3.20;;
8716;SDS011;4395;48.554;8.820;2023-07-22T00:09:27;3.80;;;3.20;;
8716;SDS011;4395;48.554;8.820;2023-07-22T00:11:30;3.13;;;2.83;;
8716;SDS011;4395;48.554;8.820;2023-07-22T00:13:36;3.27;;;2.97;;
8716;SDS011;4395;48.554;8.820;2023-07-22T00:15:39;3.40;;;3.10;;
8716;SDS011;4395;48.554;8.820;2023-07-22T00:17:41;3.23;;;2.93;;
8716;SDS011;4395;48.554;8.820;2023-07-22T00:19:45;4.20;;;3.22;;
8716;SDS011;4395;48.554;8.820;2023-07-22T00:21:48;3.37;;;3.07;;
8716;SDS011;4395;48.554;8.820;2023-07-22T00:23:50;3.83;;;3.07;;
8716;SDS011;4395;48.554;8.820;2023-07-22T00:25:53;3.77;;;3.10;;
8716;SDS011;4395;48.554;8.820;2023-07-22T00:27:56;3.23;;;2.93;;
8716;SDS011;4395;48.554;8.820;2023-07-22T00:30:00;3.40;;;3.10;;
8716;SDS011;4395;48.554;8.820;2023-07-22T00:32:04;4.07;;;3.00;;
8716;SDS011;4395;48.554;8.820;2023-07-22T00:34:09;4.28;;;3.28;;
8716;SDS011;4395;48.554;8.820;2023-07-22T00:36:12;4.40;;;3.03;;
8716;SDS011;4395;48.554;8.820;2023-07-22T00:38:15;4.43;;;2.90;;
8716;SDS011;4395;48.554;8.820;2023-07-22T00:40:17;3.13;;;2.83;;
8716;SDS011;4395;48.554;8.820;2023-07-22T00:42:20;3.57;;;2.90;;
8716;SDS011;4395;48.554;8.820;2023-07-22T00:44:23;3.78;;;2.95;;
8716;SDS011;4395;48.554;8.820;2023-07-22T00:46:28;3.92;;;2.97;;
8716;SDS011;4395;48.554;8.820;2023-07-22T00:48:31;4.05;;;2.70;;
8716;SDS011;4395;48.554;8.820;2023-07-22T00:50:35;3.43;;;3.10;;
8716;SDS011;4395;48.554;8.820;2023-07-22T00:52:37;3.45;;;3.15;;
8716;SDS011;4395;48.554;8.820;2023-07-22T00:54:40;4.13;;;3.08;;
8716;SDS011;4395;48.554;8.820;2023-07-22T00:56:44;5.63;;;2.92;;
8716;SDS011;4395;48.554;8.820;2023-07-22T00:58:47;3.90;;;2.95;;
8716;SDS011;4395;48.554;8.820;2023-07-22T01:00:50;3.53;;;3.10;;
8716;SDS011;4395;48.554;8.820;2023-07-22T01:02:55;3.30;;;3.00;;
8716;SDS011;4395;48.554;8.820;2023-07-22T01:04:58;3.63;;;2.90;;
8716;SDS011;4395;48.554;8.820;2023-07-22T01:07:01;4.10;;;3.05;;
8716;SDS011;4395;48.554;8.820;2023-07-22T01:09:08;4.13;;;2.90;;
8716;SDS011;4395;48.554;8.820;2023-07-22T01:11:11;3.10;;;2.72;;
8716;SDS011;4395;48.554;8.820;2023-07-22T01:13:15;3.78;;;2.95;;
8716;SDS011;4395;48.554;8.820;2023-07-22T01:15:18;3.30;;;3.00;;
8716;SDS011;4395;48.554;8.820;2023-07-22T01:17:21;2.92;;;2.72;;
8716;SDS011;4395;48.554;8.820;2023-07-22T01:19:25;3.00;;;2.70;;
8716;SDS011;4395;48.554;8.820;2023-07-22T01:21:29;3.33;;;2.50;;
8716;SDS011;4395;48.554;8.820;2023-07-22T01:23:36;3.17;;;2.88;;
8716;SDS011;4395;48.554;8.820;2023-07-22T01:25:40;2.83;;;2.63;;
8716;SDS011;4395;48.554;8.820;2023-07-22T01:27:43;2.80;;;2.55;;
8716;SDS011;4395;48.554;8.820;2023-07-22T01:29:49;3.15;;;2.83;;
8716;SDS011;4395;48.554;8.820;2023-07-22T01:31:53;2.83;;;2.37;;
8716;SDS011;4395;48.554;8.820;2023-07-22T01:33:57;5.60;;;2.63;;
8716;SDS011;4395;48.554;8.820;2023-07-22T01:36:05;3.05;;;2.50;;
8716;SDS011;4395;48.554;8.820;2023-07-22T01:38:08;2.50;;;2.30;;
8716;SDS011;4395;48.554;8.820;2023-07-22T01:40:13;2.80;;;2.55;;
8716;SDS011;4395;48.554;8.820;2023-07-22T01:42:16;4.50;;;2.80;;
8716;SDS011;4395;48.554;8.820;2023-07-22T01:44:19;4.35;;;2.75;;
8716;SDS011;4395;48.554;8.820;2023-07-22T01:46:21;4.28;;;3.00;;
8716;SDS011;4395;48.554;8.820;2023-07-22T01:48:24;2.97;;;2.60;;
8716;SDS011;4395;48.554;8.820;2023-07-22T01:50:27;2.85;;;2.65;;
8716;SDS011;4395;48.554;8.820;2023-07-22T01:52:30;3.58;;;2.90;;
8716;SDS011;4395;48.554;8.820;2023-07-22T01:54:33;2.90;;;2.60;;
8716;SDS011;4395;48.554;8.820;2023-07-22T01:56:37;2.78;;;2.58;;
8716;SDS011;4395;48.554;8.820;2023-07-22T01:58:41;2.67;;;2.47;;
8716;SDS011;4395;48.554;8.820;2023-07-22T02:00:48;3.08;;;2.80;;
8716;SDS011;4395;48.554;8.820;2023-07-22T02:02:53;3.20;;;2.90;;
8716;SDS011;4395;48.554;8.820;2023-07-22T02:04:56;2.53;;;2.08;;
8716;SDS011;4395;48.554;8.820;2023-07-22T02:06:59;2.50;;;2.30;;
8716;SDS011;4395;48.554;8.820;2023-07-22T02:09:02;3.08;;;2.78;;
8716;SDS011;4395;48.554;8.820;2023-07-22T02:11:12;3.65;;;2.95;;
8716;SDS011;4395;48.554;8.820;2023-07-22T02:13:16;3.42;;;2.70;;
8716;SDS011;4395;48.554;8.820;2023-07-22T02:15:19;3.35;;;2.70;;
8716;SDS011;4395;48.554;8.820;2023-07-22T02:17:23;3.17;;;2.83;;
8716;SDS011;4395;48.554;8.820;2023-07-22T02:19:26;3.88;;;2.70;;
8716;SDS011;4395;48.554;8.820;2023-07-22T02:21:29;3.05;;;2.75;;
8716;SDS011;4395;48.554;8.820;2023-07-22T02:23:32;3.90;;;2.50;;
8716;SDS011;4395;48.554;8.820;2023-07-22T02:25:35;2.83;;;2.53;;
8716;SDS011;4395;48.554;8.820;2023-07-22T02:27:38;2.90;;;2.70;;
8716;SDS011;4395;48.554;8.820;2023-07-22T02:29:43;3.15;;;2.50;;
8716;SDS011;4395;48.554;8.820;2023-07-22T02:31:47;3.22;;;2.38;;
8716;SDS011;4395;48.554;8.820;2023-07-22T02:33:50;3.05;;;2.75;;
8716;SDS011;4395;48.554;8.820;2023-07-22T02:35:53;3.05;;;2.70;;
8716;SDS011;4395;48.554;8.820;2023-07-22T02:37:56;4.50;;;2.72;;
8716;SDS011;4395;48.554;8.820;2023-07-22T02:40:00;4.35;;;2.55;;
8716;SDS011;4395;48.554;8.820;2023-07-22T02:42:10;3.00;;;2.70;;
8716;SDS011;4395;48.554;8.820;2023-07-22T02:44:12;2.83;;;2.63;;
8716;SDS011;4395;48.554;8.820;2023-07-22T02:46:17;3.13;;;2.70;;
8716;SDS011;4395;48.554;8.820;2023-07-22T02:48:20;3.45;;;2.75;;
8716;SDS011;4395;48.554;8.820;2023-07-22T02:50:25;2.95;;;2.15;;
8716;SDS011;4395;48.554;8.820;2023-07-22T02:52:29;3.25;;;2.58;;
8716;SDS011;4395;48.554;8.820;2023-07-22T02:54:32;6.03;;;3.08;;
8716;SDS011;4395;48.554;8.820;2023-07-22T02:56:40;3.63;;;2.60;;
8716;SDS011;4395;48.554;8.820;2023-07-22T02:58:42;3.40;;;3.03;;
8716;SDS011;4395;48.554;8.820;2023-07-22T03:00:45;4.13;;;2.90;;
8716;SDS011;4395;48.554;8.820;2023-07-22T03:02:50;3.80;;;3.00;;
8716;SDS011;4395;48.554;8.820;2023-07-22T03:04:54;3.22;;;2.80;;
8716;SDS011;4395;48.554;8.820;2023-07-22T03:06:57;3.80;;;3.00;;
8716;SDS011;4395;48.554;8.820;2023-07-22T03:09:01;4.22;;;2.50;;
8716;SDS011;4395;48.554;8.820;2023-07-22T03:11:06;3.25;;;2.65;;
8716;SDS011;4395;48.554;8.820;2023-07-22T03:13:09;2.83;;;2.63;;
8716;SDS011;4395;48.554;8.820;2023-07-22T03:15:12;2.78;;;2.55;;
8716;SDS011;4395;48.554;8.820;2023-07-22T03:17:14;2.90;;;2.60;;
8716;SDS011;4395;48.554;8.820;2023-07-22T03:19:21;3.97;;;2.70;;
8716;SDS011;4395;48.554;8.820;2023-07-22T03:21:24;3.97;;;2.60;;
8716;SDS011;4395;48.554;8.820;2023-07-22T03:23:27;2.90;;;2.60;;
8716;SDS011;4395;48.554;8.820;2023-07-22T03:25:29;4.75;;;2.83;;
8716;SDS011;4395;48.554;8.820;2023-07-22T03:27:33;3.10;;;2.80;;
8716;SDS011;4395;48.554;8.820;2023-07-22T03:29:36;3.97;;;2.92;;
8716;SDS011;4395;48.554;8.820;2023-07-22T03:31:40;3.08;;;2.70;;
8716;SDS011;4395;48.554;8.820;2023-07-22T03:33:45;3.78;;;2.90;;
8716;SDS011;4395;48.554;8.820;2023-07-22T03:35:49;5.07;;;4.57;;
8716;SDS011;4395;48.554;8.820;2023-07-22T03:37:52;3.35;;;3.05;;
8716;SDS011;4395;48.554;8.820;2023-07-22T03:39:55;7.03;;;3.08;;
8716;SDS011;4395;48.554;8.820;2023-07-22T03:41:58;3.22;;;2.70;;
8716;SDS011;4395;48.554;8.820;2023-07-22T03:44:01;3.33;;;3.03;;
8716;SDS011;4395;48.554;8.820;2023-07-22T03:46:04;4.82;;;2.72;;
8716;SDS011;4395;48.554;8.820;2023-07-22T03:48:07;3.22;;;2.63;;
8716;SDS011;4395;48.554;8.820;2023-07-22T03:50:11;2.58;;;2.38;;
8716;SDS011;4395;48.554;8.820;2023-07-22T03:52:14;4.10;;;2.75;;
8716;SDS011;4395;48.554;8.820;2023-07-22T03:54:19;3.67;;;2.97;;
8716;SDS011;4395;48.554;8.820;2023-07-22T03:56:22;2.75;;;2.53;;
8716;SDS011;4395;48.554;8.820;2023-07-22T03:58:26;2.70;;;2.50;;
8716;SDS011;4395;48.554;8.820;2023-07-22T04:00:29;2.60;;;2.40;;
8716;SDS011;4395;48.554;8.820;2023-07-22T04:02:33;3.35;;;2.72;;
8716;SDS011;4395;48.554;8.820;2023-07-22T04:04:36;2.85;;;2.40;;
8716;SDS011;4395;48.554;8.820;2023-07-22T04:06:38;3.00;;;2.70;;
8716;SDS011;4395;48.554;8.820;2023-07-22T04:08:43;3.03;;;2.60;;
8716;SDS011;4395;48.554;8.820;2023-07-22T04:10:50;3.03;;;2.63;;
8716;SDS011;4395;48.554;8.820;2023-07-22T04:12:54;3.22;;;2.72;;
8716;SDS011;4395;48.554;8.820;2023-07-22T04:14:57;3.40;;;3.10;;
8716;SDS011;4395;48.554;8.820;2023-07-22T04:17:02;4.57;;;2.75;;
8716;SDS011;4395;48.554;8.820;2023-07-22T04:19:06;3.80;;;2.70;;
8716;SDS011;4395;48.554;8.820;2023-07-22T04:21:09;3.85;;;2.60;;
8716;SDS011;4395;48.554;8.820;2023-07-22T04:23:11;2.70;;;2.50;;
8716;SDS011;4395;48.554;8.820;2023-07-22T04:25:16;4.20;;;2.95;;
8716;SDS011;4395;48.554;8.820;2023-07-22T04:27:19;3.58;;;2.58;;
8716;SDS011;4395;48.554;8.820;2023-07-22T04:29:22;3.33;;;2.70;;
8716;SDS011;4395;48.554;8.820;2023-07-22T04:31:25;4.53;;;2.90;;
8716;SDS011;4395;48.554;8.820;2023-07-22T04:33:28;4.50;;;2.45;;
8716;SDS011;4395;48.554;8.820;2023-07-22T04:35:31;5.40;;;2.80;;
8716;SDS011;4395;48.554;8.820;2023-07-22T04:37:34;3.83;;;3.10;;
8716;SDS011;4395;48.554;8.820;2023-07-22T04:39:37;4.78;;;3.03;;
8716;SDS011;4395;48.554;8.820;2023-07-22T04:41:42;3.30;;;3.00;;
8716;SDS011;4395;48.554;8.820;2023-07-22T04:43:45;5.78;;;2.67;;
8716;SDS011;4395;48.554;8.820;2023-07-22T04:45:48;4.00;;;3.05;;
8716;SDS011;4395;48.554;8.820;2023-07-22T04:47:50;3.78;;;2.90;;
8716;SDS011;4395;48.554;8.820;2023-07-22T04:49:53;3.63;;;3.13;;
8716;SDS011;4395;48.554;8.820;2023-07-22T04:51:56;2.75;;;2.55;;
8716;SDS011;4395;48.554;8.820;2023-07-22T04:53:59;2.95;;;2.75;;
8716;SDS011;4395;48.554;8.820;2023-07-22T04:56:02;3.58;;;2.70;;
8716;SDS011;4395;48.554;8.820;2023-07-22T04:58:06;3.20;;;2.90;;
8716;SDS011;4395;48.554;8.820;2023-07-22T05:00:11;4.22;;;2.90;;
8716;SDS011;4395;48.554;8.820;2023-07-22T05:02:16;3.17;;;2.50;;
8716;SDS011;4395;48.554;8.820;2023-07-22T05:04:18;3.05;;;2.75;;
8716;SDS011;4395;48.554;8.820;2023-07-22T05:06:21;4.47;;;2.83;;
8716;SDS011;4395;48.554;8.820;2023-07-22T05:08:25;4.15;;;3.10;;
8716;SDS011;4395;48.554;8.820;2023-07-22T05:10:28;3.40;;;3.10;;
8716;SDS011;4395;48.554;8.820;2023-07-22T05:12:31;8.13;;;3.25;;
8716;SDS011;4395;48.554;8.820;2023-07-22T05:14:34;6.18;;;3.15;;
8716;SDS011;4395;48.554;8.820;2023-07-22T05:16:37;4.50;;;2.97;;
8716;SDS011;4395;48.554;8.820;2023-07-22T05:18:40;6.07;;;3.00;;
8716;SDS011;4395;48.554;8.820;2023-07-22T05:20:43;3.20;;;2.75;;
8716;SDS011;4395;48.554;8.820;2023-07-22T05:22:46;3.38;;;3.08;;
8716;SDS011;4395;48.554;8.820;2023-07-22T05:24:49;4.15;;;3.17;;
8716;SDS011;4395;48.554;8.820;2023-07-22T05:26:52;3.35;;;3.00;;
8716;SDS011;4395;48.554;8.820;2023-07-22T05:29:09;6.30;;;3.05;;
8716;SDS011;4395;48.554;8.820;2023-07-22T05:31:13;5.80;;;2.95;;
8716;SDS011;4395;48.554;8.820;2023-07-22T05:33:16;5.07;;;2.70;;
8716;SDS011;4395;48.554;8.820;2023-07-22T05:35:19;2.80;;;2.60;;
8716;SDS011;4395;48.554;8.820;2023-07-22T05:37:22;5.45;;;3.08;;
8716;SDS011;4395;48.554;8.820;2023-07-22T05:39:25;4.07;;;2.85;;
8716;SDS011;4395;48.554;8.820;2023-07-22T05:41:28;4.22;;;3.10;;
8716;SDS011;4395;48.554;8.820;2023-07-22T05:43:31;4.47;;;2.80;;
8716;SDS011;4395;48.554;8.820;2023-07-22T05:45:34;3.17;;;2.67;;
8716;SDS011;4395;48.554;8.820;2023-07-22T05:47:38;3.03;;;2.73;;
8716;SDS011;4395;48.554;8.820;2023-07-22T05:49:41;4.80;;;2.80;;
8716;SDS011;4395;48.554;8.820;2023-07-22T05:51:43;3.28;;;2.70;;
8716;SDS011;4395;48.554;8.820;2023-07-22T05:53:45;3.00;;;2.70;;
8716;SDS011;4395;48.554;8.820;2023-07-22T05:55:48;3.73;;;3.30;;
8716;SDS011;4395;48.554;8.820;2023-07-22T05:57:51;3.50;;;3.20;;
8716;SDS011;4395;48.554;8.820;2023-07-22T05:59:53;3.20;;;2.90;;
8716;SDS011;4395;48.554;8.820;2023-07-22T06:02:13;3.00;;;2.80;;
8716;SDS011;4395;48.554;8.820;2023-07-22T06:04:17;4.70;;;3.07;;
8716;SDS011;4395;48.554;8.820;2023-07-22T06:06:20;4.17;;;3.13;;
8716;SDS011;4395;48.554;8.820;2023-07-22T06:08:24;2.97;;;2.77;;
8716;SDS011;4395;48.554;8.820;2023-07-22T06:10:28;3.90;;;2.50;;
8716;SDS011;4395;48.554;8.820;2023-07-22T06:12:31;4.53;;;2.83;;
8716;SDS011;4395;48.554;8.820;2023-07-22T06:14:34;4.17;;;2.80;;
8716;SDS011;4395;48.554;8.820;2023-07-22T06:16:37;3.63;;;3.00;;
8716;SDS011;4395;48.554;8.820;2023-07-22T06:18:39;4.30;;;2.80;;
8716;SDS011;4395;48.554;8.820;2023-07-22T06:20:44;3.47;;;2.70;;
8716;SDS011;4395;48.554;8.820;2023-07-22T06:22:47;2.73;;;2.53;;
8716;SDS011;4395;48.554;8.820;2023-07-22T06:24:49;3.00;;;2.67;;
8716;SDS011;4395;48.554;8.820;2023-07-22T06:26:51;3.43;;;2.60;;
8716;SDS011;4395;48.554;8.820;2023-07-22T06:28:54;3.00;;;2.57;;
8716;SDS011;4395;48.554;8.820;2023-07-22T06:30:58;2.93;;;2.60;;
8716;SDS011;4395;48.554;8.820;2023-07-22T06:33:01;3.33;;;2.90;;
8716;SDS011;4395;48.554;8.820;2023-07-22T06:35:04;3.10;;;2.80;;
8716;SDS011;4395;48.554;8.820;2023-07-22T06:37:07;3.10;;;2.80;;
8716;SDS011;4395;48.554;8.820;2023-07-22T06:39:10;5.23;;;2.73;;
8716;SDS011;4395;48.554;8.820;2023-07-22T06:41:14;3.13;;;2.83;;
8716;SDS011;4395;48.554;8.820;2023-07-22T06:43:16;2.60;;;2.40;;
8716;SDS011;4395;48.554;8.820;2023-07-22T06:45:19;3.70;;;2.90;;
8716;SDS011;4395;48.554;8.820;2023-07-22T06:47:22;3.00;;;2.33;;
8716;SDS011;4395;48.554;8.820;2023-07-22T06:49:25;2.67;;;2.30;;
8716;SDS011;4395;48.554;8.820;2023-07-22T06:51:28;2.37;;;2.10;;
8716;SDS011;4395;48.554;8.820;2023-07-22T06:53:32;3.57;;;2.90;;
8716;SDS011;4395;48.554;8.820;2023-07-22T06:55:35;4.83;;;2.70;;
8716;SDS011;4395;48.554;8.820;2023-07-22T06:57:37;4.47;;;2.70;;
8716;SDS011;4395;48.554;8.820;2023-07-22T06:59:40;2.77;;;2.47;;
8716;SDS011;4395;48.554;8.820;2023-07-22T07:01:43;2.70;;;2.50;;
8716;SDS011;4395;48.554;8.820;2023-07-22T07:03:45;3.13;;;2.67;;
8716;SDS011;4395;48.554;8.820;2023-07-22T07:05:51;4.00;;;3.03;;
8716;SDS011;4395;48.554;8.820;2023-07-22T07:07:54;4.47;;;3.00;;
8716;SDS011;4395;48.554;8.820;2023-07-22T07:09:58;4.70;;;2.90;;
8716;SDS011;4395;48.554;8.820;2023-07-22T07:12:01;4.13;;;2.40;;
8716;SDS011;4395;48.554;8.820;2023-07-22T07:14:04;2.47;;;2.27;;
8716;SDS011;4395;48.554;8.820;2023-07-22T07:16:19;3.33;;;2.70;;
8716;SDS011;4395;48.554;8.820;2023-07-22T07:18:23;2.77;;;2.50;;
8716;SDS011;4395;48.554;8.820;2023-07-22T07:20:26;3.60;;;2.60;;
8716;SDS011;4395;48.554;8.820;2023-07-22T07:22:28;3.37;;;2.47;;
8716;SDS011;4395;48.554;8.820;2023-07-22T07:24:31;2.93;;;2.63;;
8716;SDS011;4395;48.554;8.820;2023-07-22T07:26:35;2.47;;;2.23;;
8716;SDS011;4395;48.554;8.820;2023-07-22T07:28:38;4.30;;;2.90;;
8716;SDS011;4395;48.554;8.820;2023-07-22T07:30:40;3.80;;;2.67;;
8716;SDS011;4395;48.554;8.820;2023-07-22T07:32:42;3.03;;;2.73;;
8716;SDS011;4395;48.554;8.820;2023-07-22T07:34:45;3.93;;;2.60;;
8716;SDS011;4395;48.554;8.820;2023-07-22T07:36:48;3.17;;;2.43;;
8716;SDS011;4395;48.554;8.820;2023-07-22T07:38:51;2.40;;;2.20;;
8716;SDS011;4395;48.554;8.820;2023-07-22T07:40:55;2.70;;;2.50;;
8716;SDS011;4395;48.554;8.820;2023-07-22T07:43:00;13.30;;;3.67;;
8716;SDS011;4395;48.554;8.820;2023-07-22T07:45:03;6.37;;;2.47;;
8716;SDS011;4395;48.554;8.820;2023-07-22T07:47:07;8.97;;;2.80;;
8716;SDS011;4395;48.554;8.820;2023-07-22T07:49:09;17.57;;;3.23;;
8716;SDS011;4395;48.554;8.820;2023-07-22T07:51:12;4.83;;;2.27;;
8716;SDS011;4395;48.554;8.820;2023-07-22T07:53:16;1.97;;;1.57;;
8716;SDS011;4395;48.554;8.820;2023-07-22T07:55:19;3.33;;;1.60;;
8716;SDS011;4395;48.554;8.820;2023-07-22T07:57:21;3.57;;;1.90;;
8716;SDS011;4395;48.554;8.820;2023-07-22T07:59:25;3.27;;;1.90;;
8716;SDS011;4395;48.554;8.820;2023-07-22T08:01:27;3.13;;;1.77;;
8716;SDS011;4395;48.554;8.820;2023-07-22T08:03:30;2.90;;;1.80;;
8716;SDS011;4395;48.554;8.820;2023-07-22T08:05:33;2.73;;;1.77;;
8716;SDS011;4395;48.554;8.820;2023-07-22T08:07:36;1.73;;;1.63;;
8716;SDS011;4395;48.554;8.820;2023-07-22T08:09:39;1.77;;;1.67;;
8716;SDS011;4395;48.554;8.820;2023-07-22T08:11:43;2.13;;;1.80;;
8716;SDS011;4395;48.554;8.820;2023-07-22T08:13:45;2.00;;;1.80;;
8716;SDS011;4395;48.554;8.820;2023-07-22T08:15:49;3.27;;;1.80;;
8716;SDS011;4395;48.554;8.820;2023-07-22T08:17:52;4.10;;;2.00;;
8716;SDS011;4395;48.554;8.820;2023-07-22T08:19:55;1.97;;;1.83;;
8716;SDS011;4395;48.554;8.820;2023-07-22T08:21:57;3.70;;;1.90;;
8716;SDS011;4395;48.554;8.820;2023-07-22T08:24:00;1.80;;;1.60;;
8716;SDS011;4395;48.554;8.820;2023-07-22T08:26:04;1.87;;;1.77;;
8716;SDS011;4395;48.554;8.820;2023-07-22T08:28:07;2.80;;;1.87;;
8716;SDS011;4395;48.554;8.820;2023-07-22T08:30:10;1.63;;;1.53;;
8716;SDS011;4395;48.554;8.820;2023-07-22T08:32:14;3.00;;;1.80;;
8716;SDS011;4395;48.554;8.820;2023-07-22T08:34:17;1.57;;;1.47;;
8716;SDS011;4395;48.554;8.820;2023-07-22T08:36:20;2.63;;;1.80;;
8716;SDS011;4395;48.554;8.820;2023-07-22T08:38:23;3.23;;;1.33;;
8716;SDS011;4395;48.554;8.820;2023-07-22T08:40:25;2.07;;;1.57;;
8716;SDS011;4395;48.554;8.820;2023-07-22T08:42:28;1.90;;;1.50;;
8716;SDS011;4395;48.554;8.820;2023-07-22T08:44:34;2.93;;;1.40;;
8716;SDS011;4395;48.554;8.820;2023-07-22T08:46:41;2.03;;;1.47;;
8716;SDS011;4395;48.554;8.820;2023-07-22T08:48:46;2.37;;;1.47;;
8716;SDS011;4395;48.554;8.820;2023-07-22T08:50:52;2.43;;;1.50;;
8716;SDS011;4395;48.554;8.820;2023-07-22T08:52:57;3.00;;;1.70;;
8716;SDS011;4395;48.554;8.820;2023-07-22T08:55:00;4.13;;;1.63;;
8716;SDS011;4395;48.554;8.820;2023-07-22T08:57:04;1.50;;;1.40;;
8716;SDS011;4395;48.554;8.820;2023-07-22T08:59:08;1.40;;;1.30;;
8716;SDS011;4395;48.554;8.820;2023-07-22T09:01:11;3.00;;;1.30;;
8716;SDS011;4395;48.554;8.820;2023-07-22T09:03:14;2.43;;;1.50;;
8716;SDS011;4395;48.554;8.820;2023-07-22T09:05:19;2.50;;;1.73;;
8716;SDS011;4395;48.554;8.820;2023-07-22T09:07:23;2.73;;;1.53;;
8716;SDS011;4395;48.554;8.820;2023-07-22T09:09:26;8.70;;;1.67;;
8716;SDS011;4395;48.554;8.820;2023-07-22T09:11:30;2.27;;;1.80;;
8716;SDS011;4395;48.554;8.820;2023-07-22T09:13:33;2.03;;;1.60;;
8716;SDS011;4395;48.554;8.820;2023-07-22T09:15:36;1.63;;;1.53;;
8716;SDS011;4395;48.554;8.820;2023-07-22T09:17:39;2.00;;;1.80;;
8716;SDS011;4395;48.554;8.820;2023-07-22T09:19:43;2.90;;;1.67;;
8716;SDS011;4395;48.554;8.820;2023-07-22T09:21:47;3.23;;;1.97;;
8716;SDS011;4395;48.554;8.820;2023-07-22T09:23:50;4.43;;;1.90;;
8716;SDS011;4395;48.554;8.820;2023-07-22T09:25:52;1.70;;;1.60;;
8716;SDS011;4395;48.554;8.820;2023-07-22T09:28:10;4.77;;;1.80;;
8716;SDS011;4395;48.554;8.820;2023-07-22T09:30:23;5.67;;;2.10;;
8716;SDS011;4395;48.554;8.820;2023-07-22T09:32:36;6.37;;;2.10;;
8716;SDS011;4395;48.554;8.820;2023-07-22T09:34:43;3.70;;;1.60;;
8716;SDS011;4395;48.554;8.820;2023-07-22T09:36:58;2.73;;;1.50;;
8716;SDS011;4395;48.554;8.820;2023-07-22T09:39:02;2.80;;;1.90;;
8716;SDS011;4395;48.554;8.820;2023-07-22T09:41:05;2.20;;;2.00;;
8716;SDS011;4395;48.554;8.820;2023-07-22T09:43:09;2.40;;;1.87;;
8716;SDS011;4395;48.554;8.820;2023-07-22T09:45:13;1.60;;;1.50;;
8716;SDS011;4395;48.554;8.820;2023-07-22T09:47:15;1.70;;;1.60;;
8716;SDS011;4395;48.554;8.820;2023-07-22T09:49:18;3.53;;;1.60;;
8716;SDS011;4395;48.554;8.820;2023-07-22T09:51:21;2.10;;;1.30;;
8716;SDS011;4395;48.554;8.820;2023-07-22T09:53:25;2.27;;;1.70;;
8716;SDS011;4395;48.554;8.820;2023-07-22T09:55:29;1.80;;;1.70;;
8716;SDS011;4395;48.554;8.820;2023-07-22T09:57:32;2.90;;;2.00;;
8716;SDS011;4395;48.554;8.820;2023-07-22T09:59:39;2.90;;;2.10;;
8716;SDS011;4395;48.554;8.820;2023-07-22T10:01:42;3.90;;;2.03;;
8716;SDS011;4395;48.554;8.820;2023-07-22T10:03:48;1.93;;;1.77;;
8716;SDS011;4395;48.554;8.820;2023-07-22T10:05:56;1.97;;;1.70;;
8716;SDS011;4395;48.554;8.820;2023-07-22T10:08:02;4.97;;;2.00;;
8716;SDS011;4395;48.554;8.820;2023-07-22T10:10:09;5.53;;;2.10;;
8716;SDS011;4395;48.554;8.820;2023-07-22T10:12:13;1.90;;;1.70;;
8716;SDS011;4395;48.554;8.820;2023-07-22T10:14:16;2.53;;;1.80;;
8716;SDS011;4395;48.554;8.820;2023-07-22T10:16:20;2.47;;;1.90;;
8716;SDS011;4395;48.554;8.820;2023-07-22T10:18:25;2.00;;;1.90;;
8716;SDS011;4395;48.554;8.820;2023-07-22T10:20:28;1.57;;;1.47;;
8716;SDS011;4395;48.554;8.820;2023-07-22T10:22:32;4.80;;;2.23;;
8716;SDS011;4395;48.554;8.820;2023-07-22T10:24:37;2.20;;;2.00;;
8716;SDS011;4395;48.554;8.820;2023-07-22T10:26:43;2.10;;;1.90;;
8716;SDS011;4395;48.554;8.820;2023-07-22T10:28:48;3.40;;;1.90;;
8716;SDS011;4395;48.554;8.820;2023-07-22T10:30:51;2.80;;;2.00;;
8716;SDS011;4395;48.554;8.820;2023-07-22T10:32:54;2.30;;;2.10;;
8716;SDS011;4395;48.554;8.820;2023-07-22T10:34:57;2.30;;;1.87;;
8716;SDS011;4395;48.554;8.820;2023-07-22T10:37:00;2.20;;;2.00;;
8716;SDS011;4395;48.554;8.820;2023-07-22T10:39:05;2.07;;;1.97;;
8716;SDS011;4395;48.554;8.820;2023-07-22T10:41:12;2.20;;;2.10;;
8716;SDS011;4395;48.554;8.820;2023-07-22T10:43:24;4.23;;;2.10;;
8716;SDS011;4395;48.554;8.820;2023-07-22T10:45:28;3.00;;;1.73;;
8716;SDS011;4395;48.554;8.820;2023-07-22T10:47:33;1.90;;;1.80;;
8716;SDS011;4395;48.554;8.820;2023-07-22T10:49:42;3.40;;;3.10;;
8716;SDS011;4395;48.554;8.820;2023-07-22T10:51:47;1.80;;;1.70;;
8716;SDS011;4395;48.554;8.820;2023-07-22T10:53:50;2.87;;;1.73;;
8716;SDS011;4395;48.554;8.820;2023-07-22T10:56:03;4.67;;;2.53;;
8716;SDS011;4395;48.554;8.820;2023-07-22T10:58:06;2.07;;;1.87;;
8716;SDS011;4395;48.554;8.820;2023-07-22T11:00:10;2.57;;;1.67;;
8716;SDS011;4395;48.554;8.820;2023-07-22T11:02:24;5.00;;;1.70;;
8716;SDS011;4395;48.554;8.820;2023-07-22T11:04:28;2.10;;;1.90;;
8716;SDS011;4395;48.554;8.820;2023-07-22T11:06:56;1.70;;;1.60;;
8716;SDS011;4395;48.554;8.820;2023-07-22T11:09:00;2.10;;;1.40;;
8716;SDS011;4395;48.554;8.820;2023-07-22T11:11:02;2.77;;;2.10;;
8716;SDS011;4395;48.554;8.820;2023-07-22T11:13:06;2.97;;;2.00;;
8716;SDS011;4395;48.554;8.820;2023-07-22T11:15:10;2.13;;;1.83;;
8716;SDS011;4395;48.554;8.820;2023-07-22T11:17:17;2.40;;;2.10;;
8716;SDS011;4395;48.554;8.820;2023-07-22T11:19:22;2.90;;;1.73;;
8716;SDS011;4395;48.554;8.820;2023-07-22T11:21:25;2.10;;;1.63;;
8716;SDS011;4395;48.554;8.820;2023-07-22T11:23:27;2.03;;;1.77;;
8716;SDS011;4395;48.554;8.820;2023-07-22T11:25:33;1.60;;;1.50;;
8716;SDS011;4395;48.554;8.820;2023-07-22T11:27:36;4.00;;;2.17;;
8716;SDS011;4395;48.554;8.820;2023-07-22T11:29:39;2.57;;;2.10;;
8716;SDS011;4395;48.554;8.820;2023-07-22T11:31:44;2.00;;;1.90;;
8716;SDS011;4395;48.554;8.820;2023-07-22T11:33:47;2.50;;;1.90;;
8716;SDS011;4395;48.554;8.820;2023-07-22T11:35:50;1.70;;;1.60;;
8716;SDS011;4395;48.554;8.820;2023-07-22T11:38:00;1.97;;;1.77;;
8716;SDS011;4395;48.554;8.820;2023-07-22T11:40:03;2.30;;;1.70;;
8716;SDS011;4395;48.554;8.820;2023-07-22T11:42:07;2.47;;;2.23;;
8716;SDS011;4395;48.554;8.820;2023-07-22T11:44:10;2.23;;;1.90;;
8716;SDS011;4395;48.554;8.820;2023-07-22T11:46:14;4.23;;;2.53;;
8716;SDS011;4395;48.554;8.820;2023-07-22T11:48:19;3.00;;;2.00;;
8716;SDS011;4395;48.554;8.820;2023-07-22T11:50:30;2.60;;;2.40;;
8716;SDS011;4395;48.554;8.820;2023-07-22T11:52:34;2.80;;;1.93;;
8716;SDS011;4395;48.554;8.820;2023-07-22T11:54:37;2.13;;;1.93;;
8716;SDS011;4395;48.554;8.820;2023-07-22T11:56:41;2.23;;;2.03;;
8716;SDS011;4395;48.554;8.820;2023-07-22T11:58:43;2.80;;;2.00;;
8716;SDS011;4395;48.554;8.820;2023-07-22T12:01:01;2.07;;;1.87;;
8716;SDS011;4395;48.554;8.820;2023-07-22T12:03:06;2.90;;;2.13;;
8716;SDS011;4395;48.554;8.820;2023-07-22T12:05:10;4.47;;;2.27;;
8716;SDS011;4395;48.554;8.820;2023-07-22T12:07:23;2.20;;;2.10;;
8716;SDS011;4395;48.554;8.820;2023-07-22T12:09:26;3.33;;;2.03;;
8716;SDS011;4395;48.554;8.820;2023-07-22T12:11:32;4.13;;;2.20;;
8716;SDS011;4395;48.554;8.820;2023-07-22T12:13:36;2.30;;;2.10;;
8716;SDS011;4395;48.554;8.820;2023-07-22T12:15:39;3.60;;;2.17;;
8716;SDS011;4395;48.554;8.820;2023-07-22T12:17:45;2.10;;;1.90;;
8716;SDS011;4395;48.554;8.820;2023-07-22T12:19:52;2.20;;;2.00;;
8716;SDS011;4395;48.554;8.820;2023-07-22T12:22:00;2.67;;;2.10;;
8716;SDS011;4395;48.554;8.820;2023-07-22T12:24:03;3.20;;;2.23;;
8716;SDS011;4395;48.554;8.820;2023-07-22T12:26:06;2.30;;;2.10;;
8716;SDS011;4395;48.554;8.820;2023-07-22T12:28:09;2.80;;;2.40;;
8716;SDS011;4395;48.554;8.820;2023-07-22T12:30:12;2.60;;;2.40;;
8716;SDS011;4395;48.554;8.820;2023-07-22T12:32:18;2.90;;;2.63;;
8716;SDS011;4395;48.554;8.820;2023-07-22T12:34:20;3.03;;;2.60;;
8716;SDS011;4395;48.554;8.820;2023-07-22T12:36:23;2.97;;;2.70;;
8716;SDS011;4395;48.554;8.820;2023-07-22T12:38:28;3.07;;;2.77;;
8716;SDS011;4395;48.554;8.820;2023-07-22T12:40:29;3.03;;;2.73;;
8716;SDS011;4395;48.554;8.820;2023-07-22T12:42:32;2.57;;;2.37;;
8716;SDS011;4395;48.554;8.820;2023-07-22T12:44:35;2.57;;;2.37;;
8716;SDS011;4395;48.554;8.820;2023-07-22T12:46:38;2.67;;;2.47;;
8716;SDS011;4395;48.554;8.820;2023-07-22T12:48:40;2.80;;;2.60;;
8716;SDS011;4395;48.554;8.820;2023-07-22T12:50:43;4.17;;;2.47;;